createdAt,value
2023-05-24T00:02:53.626Z,46.53
2023-05-24T00:07:57.488Z,46.71
2023-05-24T00:13:00.763Z,46.60
2023-05-24T00:18:05.069Z,46.88
2023-05-24T00:23:08.474Z,46.94
2023-05-24T00:28:12.064Z,47.14
2023-05-24T00:33:16.051Z,47.24
2023-05-24T00:38:19.334Z,47.22
2023-05-24T00:43:23.718Z,47.48
2023-05-24T00:48:29.077Z,47.52
2023-05-24T00:53:33.592Z,47.72
2023-05-24T00:58:37.017Z,47.66
2023-05-24T01:03:42.065Z,47.72
2023-05-24T01:09:10.432Z,48.08
2023-05-24T01:14:42.169Z,48.21
2023-05-24T01:19:56.757Z,48.65
2023-05-24T01:25:07.762Z,48.96
2023-05-24T01:30:12.626Z,49.30
2023-05-24T01:35:16.116Z,49.10
2023-05-24T01:40:19.692Z,49.58
2023-05-24T01:45:44.173Z,49.87
2023-05-24T01:51:06.876Z,50.16
2023-05-24T01:56:12.591Z,50.36
2023-05-24T02:01:16.365Z,50.22
2023-05-24T02:06:20.181Z,50.43
2023-05-24T02:11:23.683Z,50.71
2023-05-24T02:16:31.005Z,50.78
2023-05-24T02:21:34.392Z,51.10
2023-05-24T02:26:38.724Z,51.48
2023-05-24T02:31:42.170Z,51.65
2023-05-24T02:36:46.134Z,51.97
2023-05-24T02:41:49.389Z,51.97
2023-05-24T02:46:52.781Z,52.25
2023-05-24T02:51:56.584Z,52.40
2023-05-24T02:57:00.016Z,52.56
2023-05-24T03:02:03.515Z,52.73
2023-05-24T03:07:07.059Z,52.97
2023-05-24T03:12:11.339Z,53.03
2023-05-24T03:17:14.644Z,53.15
2023-05-24T03:22:18.038Z,53.15
2023-05-24T03:27:21.389Z,53.56
2023-05-24T03:32:24.722Z,53.42
2023-05-24T03:37:28.554Z,53.52
2023-05-24T03:42:32.366Z,53.62
2023-05-24T03:47:35.872Z,53.66
2023-05-24T03:52:39.281Z,53.75
2023-05-24T03:57:45.671Z,53.55
2023-05-24T04:02:49.384Z,53.24
2023-05-24T04:07:53.010Z,53.11
2023-05-24T04:12:57.725Z,52.84
2023-05-24T04:18:03.591Z,52.78
2023-05-24T04:23:07.425Z,52.70
2023-05-24T04:28:10.801Z,52.39
2023-05-24T04:33:15.140Z,52.32
2023-05-24T04:38:22.000Z,52.08
2023-05-24T04:43:28.922Z,51.86
2023-05-24T04:48:32.281Z,51.68
2023-05-24T04:53:35.662Z,51.49
2023-05-24T04:58:39.461Z,51.39
2023-05-24T05:03:45.435Z,51.19
2023-05-24T05:08:49.017Z,51.02
2023-05-24T05:13:52.616Z,50.92
2023-05-24T05:18:56.317Z,50.97
2023-05-24T05:24:00.360Z,50.86
2023-05-24T05:29:04.088Z,50.72
2023-05-24T05:34:10.267Z,50.54
2023-05-24T05:39:14.341Z,50.67
2023-05-24T05:44:17.953Z,50.58
2023-05-24T05:49:21.322Z,50.47
2023-05-24T05:54:24.802Z,50.39
2023-05-24T05:59:28.334Z,50.25
2023-05-24T06:04:31.726Z,50.20
2023-05-24T06:09:35.164Z,50.20
2023-05-24T06:14:38.727Z,50.17
2023-05-24T06:19:42.176Z,50.08
2023-05-24T06:24:46.134Z,49.91
2023-05-24T06:29:49.689Z,49.77
2023-05-24T06:34:53.396Z,49.66
2023-05-24T06:39:56.827Z,49.42
2023-05-24T06:45:00.138Z,49.28
2023-05-24T06:50:04.841Z,48.80
2023-05-24T06:55:09.063Z,48.43
2023-05-24T07:00:13.433Z,47.74
2023-05-24T07:05:17.418Z,47.31
2023-05-24T07:10:20.969Z,46.92
2023-05-24T07:15:24.474Z,46.67
2023-05-24T07:20:28.573Z,46.24
2023-05-24T07:25:32.998Z,45.86
2023-05-24T07:30:38.969Z,45.33
2023-05-24T07:35:42.768Z,44.90
2023-05-24T07:40:46.446Z,44.49
2023-05-24T07:45:49.890Z,43.89
2023-05-24T07:50:53.320Z,43.56
2023-05-24T07:55:57.002Z,43.21
2023-05-24T08:01:00.575Z,42.66
2023-05-24T08:06:04.387Z,42.44
2023-05-24T08:11:08.460Z,41.78
2023-05-24T08:16:11.876Z,41.50
2023-05-24T08:21:15.484Z,41.15
2023-05-24T08:26:21.175Z,40.72
2023-05-24T08:31:24.748Z,40.27
2023-05-24T08:36:28.677Z,39.89
2023-05-24T08:41:37.768Z,39.54
2023-05-24T08:46:41.642Z,39.18
2023-05-24T08:51:46.139Z,37.84
2023-05-24T08:56:49.989Z,37.18
2023-05-24T09:01:54.801Z,36.51
2023-05-24T09:06:59.170Z,36.03
2023-05-24T09:12:06.348Z,35.69
2023-05-24T09:17:09.959Z,35.52
2023-05-24T09:22:14.881Z,35.08
2023-05-24T09:27:22.520Z,34.55
2023-05-24T09:32:26.086Z,33.99
2023-05-24T09:37:32.547Z,33.40
2023-05-24T09:42:36.653Z,32.94
2023-05-24T09:47:42.358Z,32.47
2023-05-24T09:52:46.046Z,32.28
2023-05-24T09:58:05.322Z,31.90
2023-05-24T10:03:12.237Z,31.32
2023-05-24T10:08:16.553Z,31.14
2023-05-24T10:13:23.153Z,30.98
2023-05-24T10:18:26.702Z,30.70
2023-05-24T10:23:31.569Z,30.62
2023-05-24T10:28:39.016Z,30.69
2023-05-24T10:33:45.434Z,30.03
2023-05-24T10:38:49.134Z,29.73
2023-05-24T10:44:08.634Z,29.39
2023-05-24T10:49:15.297Z,29.22
2023-05-24T10:54:19.997Z,28.56
2023-05-24T10:59:24.525Z,28.80
2023-05-24T11:04:32.563Z,28.64
2023-05-24T11:09:37.789Z,28.41
2023-05-24T11:14:41.260Z,27.78
2023-05-24T11:19:55.445Z,27.52
2023-05-24T11:25:04.152Z,27.74
2023-05-24T11:30:09.074Z,27.64
2023-05-24T11:35:12.604Z,27.47
2023-05-24T11:40:17.516Z,27.42
2023-05-24T11:45:21.605Z,27.11
2023-05-24T11:50:26.661Z,26.77
2023-05-24T11:55:33.099Z,26.51
2023-05-24T12:00:36.766Z,26.02
2023-05-24T12:05:40.213Z,25.21
2023-05-24T12:10:44.422Z,25.53
2023-05-24T12:15:53.863Z,25.16
2023-05-24T12:21:11.954Z,24.62
2023-05-24T12:26:21.077Z,24.61
2023-05-24T12:31:24.535Z,24.53
2023-05-24T12:36:33.562Z,24.45
2023-05-24T12:41:36.989Z,24.47
2023-05-24T12:46:40.635Z,24.46
2023-05-24T12:51:44.034Z,24.60
2023-05-24T12:56:47.633Z,24.54
2023-05-24T13:01:52.223Z,24.54
2023-05-24T13:06:56.128Z,24.81
2023-05-24T13:11:59.647Z,24.73
2023-05-24T13:17:03.411Z,25.07
2023-05-24T13:22:07.496Z,25.28
2023-05-24T13:27:11.322Z,25.27
2023-05-24T13:32:14.840Z,25.44
2023-05-24T13:37:19.679Z,25.58
2023-05-24T13:42:23.457Z,25.31
2023-05-24T13:47:38.637Z,25.25
2023-05-24T13:52:44.015Z,24.63
2023-05-24T13:57:51.576Z,24.68
2023-05-24T14:02:56.257Z,23.91
2023-05-24T14:08:06.683Z,23.01
2023-05-24T14:13:36.889Z,22.64
2023-05-24T14:18:34.908Z,20.77
2023-05-24T14:23:39.450Z,19.30
2023-05-24T14:28:42.867Z,19.32
2023-05-24T14:33:46.376Z,18.96
2023-05-24T14:38:49.896Z,18.18
2023-05-24T14:43:53.506Z,16.58
2023-05-24T14:48:57.013Z,16.27
2023-05-24T14:54:00.373Z,16.18
2023-05-24T14:59:03.812Z,16.63
2023-05-24T15:04:07.204Z,16.91
2023-05-24T15:09:12.111Z,17.27
2023-05-24T15:14:15.732Z,17.87
2023-05-24T15:19:19.262Z,18.39
2023-05-24T15:24:22.773Z,18.84
2023-05-24T15:29:26.391Z,19.42
2023-05-24T15:34:30.005Z,19.71
2023-05-24T15:39:34.748Z,20.00
2023-05-24T15:44:38.471Z,19.98
2023-05-24T15:49:41.987Z,18.87
2023-05-24T15:54:45.460Z,17.26
2023-05-24T15:59:48.866Z,16.16
2023-05-24T16:04:52.321Z,14.66
2023-05-24T16:09:56.039Z,14.40
2023-05-24T16:15:02.844Z,14.21
2023-05-24T16:20:07.249Z,14.66
2023-05-24T16:25:11.197Z,14.28
2023-05-24T16:30:14.824Z,13.42
2023-05-24T16:35:18.186Z,13.16
2023-05-24T16:40:22.361Z,12.43
2023-05-24T16:45:25.890Z,13.35
2023-05-24T16:50:29.443Z,14.14
2023-05-24T16:55:33.221Z,14.77
2023-05-24T17:00:36.830Z,15.40
2023-05-24T17:05:40.655Z,15.39
2023-05-24T17:10:44.155Z,15.29
2023-05-24T17:15:48.165Z,15.45
2023-05-24T17:20:52.212Z,16.00
2023-05-24T17:25:56.471Z,16.63
2023-05-24T17:31:01.730Z,17.40
2023-05-24T17:36:06.561Z,18.38
2023-05-24T17:41:10.192Z,19.18
2023-05-24T17:46:14.556Z,19.55
2023-05-24T17:51:19.732Z,20.63
2023-05-24T17:56:23.691Z,21.06
2023-05-24T18:01:28.167Z,21.84
2023-05-24T18:06:32.263Z,22.41
2023-05-24T18:11:36.570Z,23.11
2023-05-24T18:16:39.991Z,23.74
2023-05-24T18:21:43.837Z,24.00
2023-05-24T18:26:47.504Z,24.76
2023-05-24T18:31:51.960Z,25.94
2023-05-24T18:36:55.934Z,26.16
2023-05-24T18:41:59.379Z,26.70
2023-05-24T18:47:03.061Z,27.16
2023-05-24T18:52:06.876Z,27.78
2023-05-24T18:57:10.747Z,28.28
2023-05-24T19:02:14.137Z,28.46
2023-05-24T19:07:17.928Z,28.75
2023-05-24T19:12:21.348Z,29.33
2023-05-24T19:17:25.567Z,29.66
2023-05-24T19:22:29.571Z,30.12
2023-05-24T19:27:33.121Z,30.59
2023-05-24T19:32:38.834Z,30.79
2023-05-24T19:37:42.403Z,30.96
2023-05-24T19:42:46.027Z,31.23
2023-05-24T19:47:49.777Z,31.50
2023-05-24T19:52:53.358Z,31.98
2023-05-24T19:57:56.719Z,32.24
2023-05-24T20:03:00.515Z,32.65
2023-05-24T20:08:04.314Z,32.97
2023-05-24T20:13:07.838Z,33.54
2023-05-24T20:18:11.452Z,33.96
2023-05-24T20:23:15.070Z,34.45
2023-05-24T20:28:29.490Z,35.04
2023-05-24T20:33:38.578Z,35.39
2023-05-24T20:38:42.327Z,36.31
2023-05-24T20:43:45.958Z,36.56
2023-05-24T20:48:49.657Z,37.13
2023-05-24T20:53:53.673Z,37.70
2023-05-24T20:59:00.280Z,37.65
2023-05-24T21:04:04.098Z,38.90
2023-05-24T21:09:07.602Z,39.89
2023-05-24T21:14:11.218Z,39.53
2023-05-24T21:19:14.425Z,39.65
2023-05-24T21:24:17.946Z,39.53
2023-05-24T21:29:21.469Z,40.76
2023-05-24T21:34:24.870Z,41.76
2023-05-24T21:39:28.486Z,41.90
2023-05-24T21:44:31.912Z,42.00
2023-05-24T21:49:35.518Z,41.87
2023-05-24T21:54:38.933Z,42.14
2023-05-24T21:59:42.444Z,42.42
2023-05-24T22:04:46.269Z,42.55
2023-05-24T22:09:49.791Z,42.84
2023-05-24T22:14:53.199Z,43.26
2023-05-24T22:19:56.719Z,43.65
2023-05-24T22:25:02.295Z,44.00
2023-05-24T22:30:07.023Z,44.80
2023-05-24T22:35:10.765Z,45.07
2023-05-24T22:40:14.471Z,45.63
2023-05-24T22:45:18.805Z,45.64
2023-05-24T22:50:22.626Z,46.12
2023-05-24T22:55:26.552Z,46.52
2023-05-24T23:00:30.068Z,47.70
2023-05-24T23:05:36.036Z,47.78
2023-05-24T23:10:46.001Z,48.69
2023-05-24T23:15:49.521Z,49.48
2023-05-24T23:20:56.333Z,50.95
2023-05-24T23:25:59.830Z,51.47
2023-05-24T23:31:03.400Z,52.28
2023-05-24T23:36:07.575Z,52.43
2023-05-24T23:41:11.099Z,52.99
2023-05-24T23:46:17.330Z,52.98
2023-05-24T23:51:21.094Z,54.43
2023-05-24T23:56:24.618Z,53.93
